createdAt,value
2023-04-02T00:04:00.308Z,67
2023-04-02T00:16:00.359Z,67
2023-04-02T00:28:00.197Z,67
2023-04-02T00:40:00.202Z,67.5
2023-04-02T00:52:00.365Z,67.5
2023-04-02T01:04:00.313Z,67.5
2023-04-02T01:16:00.284Z,68
2023-04-02T01:28:00.426Z,68.5
2023-04-02T01:40:00.357Z,68.5
2023-04-02T01:52:00.377Z,68.5
2023-04-02T02:04:00.280Z,68.5
2023-04-02T02:16:00.531Z,68.5
2023-04-02T02:28:00.415Z,68.5
2023-04-02T02:40:00.376Z,68.5
2023-04-02T02:52:00.347Z,68.5
2023-04-02T03:04:00.568Z,68.5
2023-04-02T03:16:00.426Z,68.5
2023-04-02T03:28:00.406Z,68.5
2023-04-02T03:40:00.549Z,68
2023-04-02T03:52:00.558Z,68.5
2023-04-02T04:04:00.479Z,68.5
2023-04-02T04:16:00.430Z,68.5
2023-04-02T04:28:00.562Z,68.5
2023-04-02T04:40:00.557Z,68.5
2023-04-02T04:52:00.516Z,68.5
2023-04-02T05:04:00.460Z,68.5
2023-04-02T05:16:01.390Z,68.5
2023-04-02T05:28:00.626Z,68.5
2023-04-02T05:40:00.526Z,68.5
2023-04-02T05:52:00.494Z,68.5
2023-04-02T06:04:00.684Z,68.5
2023-04-02T06:16:00.624Z,68.5
2023-04-02T06:28:00.539Z,68.5
2023-04-02T06:40:00.756Z,68.5
2023-04-02T06:52:00.663Z,68.5
2023-04-02T07:04:00.660Z,68.5
2023-04-02T07:16:00.569Z,68
2023-04-02T07:28:00.769Z,68
2023-04-02T07:40:00.683Z,68
2023-04-02T07:52:00.653Z,68
2023-04-02T08:04:00.853Z,68
2023-04-02T08:16:00.781Z,68
2023-04-02T08:28:00.714Z,68
2023-04-02T08:40:00.735Z,67.5
2023-04-02T08:52:00.843Z,67
2023-04-02T09:04:00.813Z,67
2023-04-02T09:16:00.767Z,67
2023-04-02T09:28:01.774Z,66.5
2023-04-02T09:40:00.908Z,66
2023-04-02T09:52:01.127Z,66
2023-04-02T10:04:00.858Z,65.5
2023-04-02T10:16:00.768Z,65
2023-04-02T10:28:00.922Z,65
2023-04-02T10:40:00.928Z,64.5
2023-04-02T10:52:00.834Z,64.5
2023-04-02T11:04:01.024Z,64
2023-04-02T11:16:00.985Z,64.5
2023-04-02T11:28:00.928Z,65
2023-04-02T11:40:00.881Z,65
2023-04-02T11:52:11.194Z,64.5
2023-04-02T12:04:01.252Z,64
2023-04-02T12:16:01.422Z,63
2023-04-02T12:28:00.862Z,62
2023-04-02T12:40:01.093Z,64
2023-04-02T12:52:00.983Z,59
2023-04-02T13:04:01.050Z,59
2023-04-02T13:16:00.920Z,54
2023-04-02T13:28:01.098Z,51
2023-04-02T13:40:01.059Z,53
2023-04-02T13:52:00.997Z,48.5
2023-04-02T14:04:01.178Z,47.5
2023-04-02T14:16:01.144Z,46
2023-04-02T14:28:01.054Z,45
2023-04-02T14:40:01.095Z,45.5
2023-04-02T14:52:03.249Z,45.5
2023-04-02T15:04:01.190Z,45.5
2023-04-02T15:16:01.129Z,44
2023-04-02T15:28:01.266Z,45.5
2023-04-02T15:40:01.239Z,43.5
2023-04-02T15:52:01.197Z,47
2023-04-02T16:04:01.137Z,46
2023-04-02T16:16:01.394Z,46
2023-04-02T16:28:01.254Z,45
2023-04-02T16:40:01.270Z,44.5
2023-04-02T16:52:01.152Z,44
2023-04-02T17:04:01.430Z,44
2023-04-02T17:16:01.285Z,43.5
2023-04-02T17:28:01.390Z,43
2023-04-02T17:40:01.224Z,44
2023-04-02T17:52:01.406Z,49
2023-04-02T18:04:01.445Z,51.5
2023-04-02T18:16:01.455Z,54
2023-04-02T18:28:01.492Z,54.5
2023-04-02T18:40:01.603Z,55
2023-04-02T18:52:01.416Z,55.5
2023-04-02T19:04:01.466Z,56
2023-04-02T19:16:01.461Z,56.5
2023-04-02T19:28:01.730Z,57
2023-04-02T19:40:01.516Z,59.5
2023-04-02T19:52:01.507Z,58.5
2023-04-02T20:04:01.444Z,59
2023-04-02T20:16:01.448Z,60
2023-04-02T20:28:01.363Z,61
2023-04-02T20:40:01.626Z,62
2023-04-02T20:52:01.487Z,62
2023-04-02T21:04:01.475Z,62.5
2023-04-02T21:16:01.437Z,62.5
2023-04-02T21:28:01.591Z,62.5
2023-04-02T21:40:01.646Z,62.5
2023-04-02T21:52:01.512Z,62.5
2023-04-02T22:04:01.735Z,62
2023-04-02T22:16:01.693Z,62
2023-04-02T22:28:01.566Z,62
2023-04-02T22:40:01.583Z,62
2023-04-02T22:52:01.718Z,62
2023-04-02T23:04:01.673Z,62
2023-04-02T23:16:01.701Z,62
2023-04-02T23:28:01.678Z,62
2023-04-02T23:40:01.619Z,62
2023-04-02T23:52:01.615Z,62
